createdAt,value
2018-07-15T00:01:55.910Z,61.57
2018-07-15T00:04:25.992Z,62.03
2018-07-15T00:06:55.656Z,61.80
2018-07-15T00:09:25.725Z,61.74
2018-07-15T00:11:55.425Z,61.89
2018-07-15T00:14:25.800Z,62.35
2018-07-15T00:16:55.897Z,62.09
2018-07-15T00:19:25.492Z,62.40
2018-07-15T00:21:55.177Z,62.36
2018-07-15T00:24:25.268Z,62.62
2018-07-15T00:26:55.616Z,62.92
2018-07-15T00:29:25.690Z,62.87
2018-07-15T00:31:55.761Z,62.52
2018-07-15T00:34:25.809Z,62.58
2018-07-15T00:36:55.842Z,63.28
2018-07-15T00:39:25.879Z,63.30
2018-07-15T00:41:55.963Z,63.20
2018-07-15T00:44:26.049Z,63.87
2018-07-15T00:46:56.135Z,64.09
2018-07-15T00:49:25.743Z,64.08
2018-07-15T00:51:55.833Z,64.52
2018-07-15T00:54:25.915Z,64.73
2018-07-15T00:56:56.508Z,64.76
2018-07-15T00:59:26.703Z,64.90
2018-07-15T01:01:56.857Z,64.78
2018-07-15T01:04:26.950Z,64.69
2018-07-15T01:06:57.028Z,64.74
2018-07-15T01:09:27.756Z,64.69
2018-07-15T01:11:57.876Z,64.97
2018-07-15T01:14:27.955Z,65.00
2018-07-15T01:16:58.011Z,65.20
2018-07-15T01:19:28.059Z,65.62
2018-07-15T01:21:58.151Z,65.62
2018-07-15T01:24:28.256Z,65.95
2018-07-15T01:26:58.352Z,65.96
2018-07-15T01:29:29.359Z,66.18
2018-07-15T01:31:59.424Z,65.84
2018-07-15T01:34:29.605Z,65.59
2018-07-15T01:36:59.818Z,66.42
2018-07-15T01:39:29.928Z,66.33
2018-07-15T01:41:59.983Z,66.00
2018-07-15T01:44:30.129Z,66.25
2018-07-15T01:47:00.183Z,66.18
2018-07-15T01:49:30.324Z,66.34
2018-07-15T01:52:00.364Z,66.36
2018-07-15T01:54:30.483Z,66.42
2018-07-15T01:57:00.529Z,66.56
2018-07-15T01:59:30.652Z,66.81
2018-07-15T02:02:00.754Z,66.75
2018-07-15T02:04:30.816Z,66.61
2018-07-15T02:07:00.878Z,67.05
2018-07-15T02:09:30.954Z,66.86
2018-07-15T02:12:01.009Z,66.75
2018-07-15T02:14:31.090Z,66.76
2018-07-15T02:17:01.232Z,66.72
2018-07-15T02:19:31.344Z,66.81
2018-07-15T02:22:01.365Z,67.22
2018-07-15T02:24:31.438Z,67.04
2018-07-15T02:27:01.497Z,67.02
2018-07-15T02:29:31.659Z,67.22
2018-07-15T02:32:01.989Z,67.70
2018-07-15T02:34:32.116Z,67.01
2018-07-15T02:37:02.168Z,67.85
2018-07-15T02:39:31.855Z,68.02
2018-07-15T02:42:01.921Z,67.56
2018-07-15T02:44:32.049Z,67.79
2018-07-15T02:47:02.130Z,67.83
2018-07-15T02:49:32.204Z,67.87
2018-07-15T02:52:02.282Z,67.73
2018-07-15T02:54:32.365Z,67.86
2018-07-15T02:57:02.402Z,67.17
2018-07-15T02:59:32.461Z,67.52
2018-07-15T03:02:02.556Z,67.78
2018-07-15T03:04:32.680Z,67.87
2018-07-15T03:07:02.782Z,68.06
2018-07-15T03:09:32.966Z,68.11
2018-07-15T03:12:03.038Z,67.90
2018-07-15T03:14:33.168Z,68.07
2018-07-15T03:17:03.247Z,67.79
2018-07-15T03:19:33.334Z,67.76
2018-07-15T03:22:03.433Z,67.87
2018-07-15T03:24:33.494Z,67.82
2018-07-15T03:27:03.124Z,67.95
2018-07-15T03:29:33.166Z,68.17
2018-07-15T03:32:03.383Z,68.25
2018-07-15T03:34:33.509Z,68.15
2018-07-15T03:37:03.643Z,67.82
2018-07-15T03:39:33.768Z,67.75
2018-07-15T03:42:04.809Z,67.84
2018-07-15T03:44:34.895Z,67.91
2018-07-15T03:47:04.948Z,67.71
2018-07-15T03:49:35.047Z,67.61
2018-07-15T03:52:05.179Z,67.67
2018-07-15T03:54:35.267Z,67.93
2018-07-15T03:57:05.387Z,67.49
2018-07-15T03:59:35.529Z,67.56
2018-07-15T04:02:05.361Z,67.90
2018-07-15T04:04:35.512Z,68.01
2018-07-15T04:07:05.664Z,68.23
2018-07-15T04:09:35.744Z,68.31
2018-07-15T04:12:05.840Z,68.28
2018-07-15T04:14:35.518Z,68.34
2018-07-15T04:17:06.028Z,69.46
2018-07-15T04:19:36.139Z,69.19
2018-07-15T04:22:06.261Z,69.11
2018-07-15T04:24:36.381Z,69.38
2018-07-15T04:27:06.468Z,69.65
2018-07-15T04:29:36.548Z,69.12
2018-07-15T04:32:06.723Z,69.61
2018-07-15T04:34:36.849Z,69.33
2018-07-15T04:37:07.734Z,69.50
2018-07-15T04:39:37.880Z,69.76
2018-07-15T04:42:08.034Z,69.54
2018-07-15T04:44:38.442Z,69.71
2018-07-15T04:47:08.588Z,69.22
2018-07-15T04:49:38.671Z,69.42
2018-07-15T04:52:08.761Z,69.18
2018-07-15T04:54:39.049Z,69.05
2018-07-15T04:57:08.703Z,68.70
2018-07-15T04:59:38.751Z,68.84
2018-07-15T05:02:08.882Z,68.33
2018-07-15T05:04:38.946Z,67.60
2018-07-15T05:07:09.031Z,67.44
2018-07-15T05:09:39.069Z,67.25
2018-07-15T05:12:09.170Z,67.11
2018-07-15T05:14:39.239Z,66.96
2018-07-15T05:17:09.340Z,66.11
2018-07-15T05:19:39.369Z,65.32
2018-07-15T05:22:09.573Z,64.91
2018-07-15T05:24:39.639Z,64.95
2018-07-15T05:27:09.967Z,63.94
2018-07-15T05:29:40.231Z,64.57
2018-07-15T05:32:10.401Z,63.79
2018-07-15T05:34:40.463Z,63.98
2018-07-15T05:37:10.673Z,61.45
2018-07-15T05:39:40.788Z,60.98
2018-07-15T05:42:10.940Z,60.50
2018-07-15T05:44:41.032Z,60.12
2018-07-15T05:47:11.093Z,59.99
2018-07-15T05:49:41.161Z,60.04
2018-07-15T05:52:11.306Z,62.16
2018-07-15T05:54:41.420Z,57.68
2018-07-15T05:57:11.577Z,58.70
2018-07-15T05:59:41.582Z,59.57
2018-07-15T06:02:11.637Z,60.46
2018-07-15T06:04:41.669Z,61.12
2018-07-15T06:07:11.339Z,60.21
2018-07-15T06:09:41.410Z,59.21
2018-07-15T06:12:11.496Z,56.77
2018-07-15T06:14:41.539Z,56.43
2018-07-15T06:17:11.748Z,60.88
2018-07-15T06:19:41.691Z,60.29
2018-07-15T06:22:11.823Z,59.72
2018-07-15T06:24:41.931Z,59.84
2018-07-15T06:27:12.006Z,59.44
2018-07-15T06:29:42.097Z,59.60
2018-07-15T06:32:12.358Z,60.30
2018-07-15T06:34:42.427Z,59.15
2018-07-15T06:37:12.537Z,61.38
2018-07-15T06:39:42.803Z,59.60
2018-07-15T06:42:12.930Z,60.20
2018-07-15T06:44:42.972Z,59.87
2018-07-15T06:47:13.040Z,60.93
2018-07-15T06:49:43.134Z,60.15
2018-07-15T06:52:13.358Z,59.46
2018-07-15T06:54:43.448Z,59.78
2018-07-15T06:57:13.644Z,58.89
2018-07-15T06:59:43.745Z,58.43
2018-07-15T07:02:13.819Z,58.31
2018-07-15T07:04:43.896Z,57.52
2018-07-15T07:07:14.070Z,58.14
2018-07-15T07:09:44.181Z,57.86
2018-07-15T07:12:14.296Z,58.19
2018-07-15T07:14:44.539Z,60.72
2018-07-15T07:17:15.011Z,55.84
2018-07-15T07:19:45.816Z,57.09
2018-07-15T07:22:16.062Z,57.04
2018-07-15T07:24:46.139Z,57.66
2018-07-15T07:27:16.299Z,54.95
2018-07-15T07:29:46.445Z,53.99
2018-07-15T07:32:16.550Z,57.04
2018-07-15T07:34:46.951Z,54.71
2018-07-15T07:37:17.075Z,53.15
2018-07-15T07:39:47.155Z,53.75
2018-07-15T07:42:17.324Z,54.86
2018-07-15T07:44:47.381Z,54.29
2018-07-15T07:47:17.807Z,53.82
2018-07-15T07:49:47.893Z,54.99
2018-07-15T07:52:18.088Z,54.00
2018-07-15T07:54:48.185Z,54.86
2018-07-15T07:57:18.321Z,55.30
2018-07-15T07:59:48.763Z,53.76
2018-07-15T08:02:18.922Z,55.59
2018-07-15T08:04:49.041Z,55.05
2018-07-15T08:07:18.795Z,54.22
2018-07-15T08:09:48.819Z,53.90
2018-07-15T08:12:19.034Z,53.94
2018-07-15T08:14:49.226Z,53.83
2018-07-15T08:17:19.342Z,53.31
2018-07-15T08:19:49.705Z,52.22
2018-07-15T08:22:19.775Z,51.96
2018-07-15T08:24:49.871Z,52.62
2018-07-15T08:27:20.025Z,53.93
2018-07-15T08:30:06.617Z,53.98
2018-07-15T08:32:36.731Z,54.37
2018-07-15T08:35:06.897Z,54.60
2018-07-15T08:37:37.785Z,53.99
2018-07-15T08:40:07.980Z,53.90
2018-07-15T08:42:38.081Z,54.42
2018-07-15T08:45:08.172Z,55.26
2018-07-15T08:47:38.220Z,53.08
2018-07-15T08:50:08.337Z,52.95
2018-07-15T08:52:38.504Z,53.74
2018-07-15T08:55:08.606Z,53.39
2018-07-15T08:57:38.681Z,53.08
2018-07-15T09:00:08.931Z,53.96
2018-07-15T09:02:39.075Z,54.03
2018-07-15T09:05:09.333Z,52.37
2018-07-15T09:07:39.448Z,51.82
2018-07-15T09:10:09.656Z,54.30
2018-07-15T09:12:39.742Z,52.72
2018-07-15T09:15:09.915Z,53.80
2018-07-15T09:17:39.972Z,51.58
2018-07-15T09:20:10.133Z,50.83
2018-07-15T09:22:40.220Z,50.70
2018-07-15T09:25:10.368Z,50.12
2018-07-15T09:27:40.523Z,51.79
2018-07-15T09:30:10.709Z,49.42
2018-07-15T09:32:40.368Z,49.57
2018-07-15T09:35:10.579Z,50.19
2018-07-15T09:37:40.665Z,51.87
2018-07-15T09:40:10.437Z,51.78
2018-07-15T09:42:40.492Z,52.69
2018-07-15T09:45:10.692Z,48.53
2018-07-15T09:47:40.801Z,50.56
2018-07-15T09:50:11.078Z,51.86
2018-07-15T09:52:41.183Z,51.88
2018-07-15T09:55:11.343Z,47.68
2018-07-15T09:57:40.986Z,47.63
2018-07-15T10:00:15.052Z,46.46
2018-07-15T10:02:45.097Z,47.67
2018-07-15T10:05:15.306Z,47.45
2018-07-15T10:07:45.497Z,47.41
2018-07-15T10:10:15.658Z,46.91
2018-07-15T10:12:45.322Z,47.62
2018-07-15T10:15:15.415Z,46.83
2018-07-15T10:17:45.532Z,47.86
2018-07-15T10:20:15.654Z,48.96
2018-07-15T10:22:46.236Z,50.25
2018-07-15T10:25:16.446Z,49.10
2018-07-15T10:27:46.584Z,49.19
2018-07-15T10:30:16.739Z,50.58
2018-07-15T10:32:47.005Z,50.58
2018-07-15T10:35:17.277Z,48.85
2018-07-15T10:37:47.457Z,48.38
2018-07-15T10:40:17.576Z,49.14
2018-07-15T10:42:47.618Z,49.71
2018-07-15T10:45:17.751Z,49.78
2018-07-15T10:47:48.439Z,49.03
2018-07-15T10:50:18.597Z,50.93
2018-07-15T10:52:48.789Z,50.18
2018-07-15T10:55:19.002Z,50.71
2018-07-15T10:57:48.610Z,50.92
2018-07-15T11:00:18.270Z,51.42
2018-07-15T11:02:48.353Z,50.02
2018-07-15T11:05:19.191Z,50.75
2018-07-15T11:07:49.381Z,51.89
2018-07-15T11:10:19.492Z,50.34
2018-07-15T11:12:49.644Z,51.07
2018-07-15T11:15:19.836Z,53.18
2018-07-15T11:17:49.904Z,52.84
2018-07-15T11:20:19.854Z,53.73
2018-07-15T11:22:50.286Z,53.96
2018-07-15T11:25:20.530Z,54.29
2018-07-15T11:27:50.596Z,55.33
2018-07-15T11:30:20.675Z,54.46
2018-07-15T11:32:50.732Z,55.75
2018-07-15T11:35:20.593Z,57.16
2018-07-15T11:37:50.734Z,56.75
2018-07-15T11:40:21.056Z,57.74
2018-07-15T11:42:51.300Z,58.85
2018-07-15T11:45:21.372Z,59.32
2018-07-15T11:47:51.588Z,59.81
2018-07-15T11:50:21.924Z,62.33
2018-07-15T11:52:51.968Z,63.37
2018-07-15T11:55:22.265Z,63.90
2018-07-15T11:57:52.348Z,63.36
2018-07-15T12:00:22.492Z,64.09
2018-07-15T12:02:52.561Z,63.79
2018-07-15T12:05:22.595Z,63.84
2018-07-15T12:07:52.849Z,63.37
2018-07-15T12:10:22.926Z,62.81
2018-07-15T12:12:53.669Z,63.62
2018-07-15T12:15:23.719Z,63.17
2018-07-15T12:17:53.863Z,62.84
2018-07-15T12:20:23.958Z,61.80
2018-07-15T12:22:54.172Z,62.46
2018-07-15T12:25:24.271Z,61.55
2018-07-15T12:27:54.353Z,62.26
2018-07-15T12:30:24.379Z,61.25
2018-07-15T12:32:54.503Z,60.19
2018-07-15T12:35:24.797Z,57.89
2018-07-15T12:37:54.895Z,56.65
2018-07-15T12:40:24.978Z,53.90
2018-07-15T12:42:55.109Z,53.34
2018-07-15T12:45:25.148Z,54.13
2018-07-15T12:47:55.209Z,53.43
2018-07-15T12:50:25.226Z,57.76
2018-07-15T12:52:55.434Z,53.16
2018-07-15T12:55:25.693Z,56.06
2018-07-15T12:57:55.847Z,53.34
2018-07-15T13:00:26.020Z,56.38
2018-07-15T13:02:56.283Z,49.79
2018-07-15T13:05:26.376Z,51.03
2018-07-15T13:07:56.755Z,50.67
2018-07-15T13:10:26.803Z,51.60
2018-07-15T13:12:56.995Z,51.34
2018-07-15T13:15:27.036Z,48.23
2018-07-15T13:17:57.196Z,48.77
2018-07-15T13:20:27.290Z,50.74
2018-07-15T13:22:57.429Z,47.12
2018-07-15T13:25:27.505Z,47.31
2018-07-15T13:27:57.924Z,46.59
2018-07-15T13:30:27.638Z,45.37
2018-07-15T13:32:58.192Z,46.29
2018-07-15T13:35:28.962Z,46.12
2018-07-15T13:37:59.476Z,46.08
2018-07-15T13:40:29.648Z,40.06
2018-07-15T13:42:59.788Z,43.92
2018-07-15T13:45:29.954Z,42.76
2018-07-15T13:48:00.068Z,44.35
2018-07-15T13:50:29.720Z,43.22
2018-07-15T13:52:59.972Z,44.10
2018-07-15T13:55:30.098Z,42.13
2018-07-15T13:58:02.635Z,39.29
2018-07-15T14:00:32.915Z,39.57
2018-07-15T14:03:03.069Z,42.14
2018-07-15T14:05:33.429Z,43.87
2018-07-15T14:08:03.737Z,43.95
2018-07-15T14:10:34.016Z,46.24
2018-07-15T14:13:03.719Z,47.15
2018-07-15T14:15:33.856Z,47.38
2018-07-15T14:18:04.071Z,48.65
2018-07-15T14:20:34.421Z,48.66
2018-07-15T14:23:04.572Z,49.93
2018-07-15T14:25:34.773Z,49.83
2018-07-15T14:28:05.062Z,46.57
2018-07-15T14:30:35.281Z,49.36
2018-07-15T14:33:05.407Z,51.31
2018-07-15T14:35:35.563Z,51.82
2018-07-15T14:38:05.627Z,52.40
2018-07-15T14:40:35.287Z,52.93
2018-07-15T14:43:05.841Z,52.28
2018-07-15T14:45:45.230Z,52.51
2018-07-15T14:48:17.412Z,53.09
2018-07-15T14:50:49.108Z,53.64
2018-07-15T14:53:19.718Z,52.62
2018-07-15T14:55:49.906Z,50.54
2018-07-15T14:58:20.165Z,51.17
2018-07-15T15:00:50.231Z,48.87
2018-07-15T15:03:20.538Z,48.22
2018-07-15T15:05:50.607Z,47.74
2018-07-15T15:08:20.764Z,49.28
2018-07-15T15:10:50.839Z,50.69
2018-07-15T15:13:20.999Z,51.65
2018-07-15T15:15:51.075Z,49.57
2018-07-15T15:18:21.269Z,47.25
2018-07-15T15:20:51.357Z,48.98
2018-07-15T15:23:21.486Z,47.70
2018-07-15T15:25:51.579Z,47.86
2018-07-15T15:28:21.743Z,47.14
2018-07-15T15:30:51.854Z,46.67
2018-07-15T15:33:22.003Z,43.74
2018-07-15T15:35:52.098Z,44.87
2018-07-15T15:38:22.284Z,45.56
2018-07-15T15:40:52.372Z,44.66
2018-07-15T15:43:22.446Z,46.37
2018-07-15T15:45:53.494Z,43.61
2018-07-15T15:48:23.623Z,40.86
2018-07-15T15:50:54.202Z,42.28
2018-07-15T15:53:24.351Z,43.54
2018-07-15T15:55:54.609Z,44.62
2018-07-15T15:58:24.716Z,45.29
2018-07-15T16:00:55.134Z,46.72
2018-07-15T16:03:25.305Z,47.03
2018-07-15T16:05:55.411Z,47.28
2018-07-15T16:08:25.542Z,47.70
2018-07-15T16:10:55.706Z,47.37
2018-07-15T16:13:25.894Z,47.67
2018-07-15T16:15:56.061Z,48.71
2018-07-15T16:18:26.131Z,49.81
2018-07-15T16:20:56.371Z,51.08
2018-07-15T16:23:26.605Z,51.09
2018-07-15T16:25:56.723Z,51.48
2018-07-15T16:28:27.366Z,50.96
2018-07-15T16:30:57.551Z,50.54
2018-07-15T16:33:29.242Z,51.72
2018-07-15T16:35:59.479Z,53.12
2018-07-15T16:38:29.572Z,53.35
2018-07-15T16:40:59.695Z,53.00
2018-07-15T16:43:29.781Z,53.35
2018-07-15T16:45:59.952Z,53.89
2018-07-15T16:48:30.083Z,54.47
2018-07-15T16:51:00.202Z,54.51
2018-07-15T16:53:30.290Z,55.00
2018-07-15T16:56:00.348Z,55.32
2018-07-15T16:58:30.373Z,57.10
2018-07-15T17:01:00.487Z,57.36
2018-07-15T17:03:30.573Z,57.30
2018-07-15T17:08:51.578Z,56.64
2018-07-15T17:11:21.676Z,57.14
2018-07-15T17:13:52.562Z,56.92
2018-07-15T17:16:22.665Z,57.48
2018-07-15T17:18:52.708Z,58.55
2018-07-15T17:21:22.862Z,57.44
2018-07-15T17:23:53.193Z,57.17
2018-07-15T17:26:23.291Z,56.49
2018-07-15T17:28:53.362Z,54.00
2018-07-15T17:31:23.039Z,54.34
2018-07-15T17:33:53.146Z,54.54
2018-07-15T17:36:23.336Z,53.68
2018-07-15T17:38:53.514Z,53.31
2018-07-15T17:41:23.650Z,54.08
2018-07-15T17:43:53.753Z,54.28
2018-07-15T17:46:23.857Z,53.87
2018-07-15T17:48:53.924Z,54.13
2018-07-15T17:51:24.062Z,53.41
2018-07-15T17:53:54.102Z,54.07
2018-07-15T17:56:24.210Z,53.17
2018-07-15T17:58:54.392Z,52.50
2018-07-15T18:01:24.436Z,52.43
2018-07-15T18:03:54.534Z,52.22
2018-07-15T18:06:24.611Z,50.91
2018-07-15T18:08:54.663Z,52.14
2018-07-15T18:11:24.763Z,51.94
2018-07-15T18:13:54.891Z,52.07
2018-07-15T18:16:25.016Z,51.66
2018-07-15T18:18:55.112Z,53.05
2018-07-15T18:21:24.774Z,52.65
2018-07-15T18:23:54.853Z,52.49
2018-07-15T18:26:24.824Z,51.61
2018-07-15T18:28:54.912Z,51.84
2018-07-15T18:31:25.069Z,53.11
2018-07-15T18:33:55.135Z,52.03
2018-07-15T18:36:24.957Z,53.04
2018-07-15T18:38:55.076Z,55.75
2018-07-15T18:41:25.200Z,60.12
2018-07-15T18:43:55.684Z,55.42
2018-07-15T18:46:25.787Z,56.21
2018-07-15T18:48:56.251Z,57.10
2018-07-15T18:51:26.461Z,58.30
2018-07-15T18:53:56.696Z,58.70
2018-07-15T18:56:26.808Z,58.96
2018-07-15T18:58:57.209Z,59.95
2018-07-15T19:01:27.325Z,60.58
2018-07-15T19:03:57.359Z,59.96
2018-07-15T19:06:27.478Z,60.78
2018-07-15T19:08:57.565Z,60.89
2018-07-15T19:11:27.262Z,61.18
2018-07-15T19:13:57.352Z,61.50
2018-07-15T19:16:27.444Z,61.32
2018-07-15T19:18:57.540Z,61.32
2018-07-15T19:21:27.669Z,61.43
2018-07-15T19:23:58.300Z,61.67
2018-07-15T19:26:28.390Z,61.39
2018-07-15T19:28:58.487Z,61.66
2018-07-15T19:31:28.586Z,61.87
2018-07-15T19:33:58.273Z,62.16
2018-07-15T19:36:28.354Z,62.38
2018-07-15T19:38:58.444Z,62.19
2018-07-15T19:41:28.618Z,62.13
2018-07-15T19:43:58.734Z,61.77
2018-07-15T19:46:28.861Z,62.12
2018-07-15T19:48:58.874Z,61.61
2018-07-15T19:51:28.975Z,61.80
2018-07-15T19:53:59.012Z,62.16
2018-07-15T19:56:29.092Z,62.36
2018-07-15T19:58:59.151Z,62.29
2018-07-15T20:01:29.282Z,62.14
2018-07-15T20:03:59.323Z,62.18
2018-07-15T20:06:29.510Z,61.84
2018-07-15T20:08:59.648Z,61.58
2018-07-15T20:11:29.775Z,61.77
2018-07-15T20:13:59.920Z,61.98
2018-07-15T20:16:30.035Z,62.42
2018-07-15T20:19:00.152Z,62.16
2018-07-15T20:21:30.424Z,61.58
2018-07-15T20:24:00.999Z,62.06
2018-07-15T20:26:31.172Z,62.07
2018-07-15T20:29:01.303Z,62.61
2018-07-15T20:31:31.536Z,63.18
2018-07-15T20:34:01.771Z,62.56
2018-07-15T20:36:31.865Z,63.23
2018-07-15T20:39:01.964Z,63.93
2018-07-15T20:41:32.019Z,63.33
2018-07-15T20:44:02.107Z,63.10
2018-07-15T20:46:32.318Z,63.38
2018-07-15T20:49:02.394Z,63.65
2018-07-15T20:51:32.525Z,63.13
2018-07-15T20:54:02.205Z,63.39
2018-07-15T20:56:32.245Z,62.33
2018-07-15T20:59:02.343Z,62.30
2018-07-15T21:01:32.379Z,61.53
2018-07-15T21:04:04.371Z,61.08
2018-07-15T21:06:35.922Z,60.99
2018-07-15T21:09:06.711Z,60.98
2018-07-15T21:11:36.756Z,60.91
2018-07-15T21:14:06.919Z,60.51
2018-07-15T21:16:37.052Z,60.08
2018-07-15T21:19:07.340Z,60.55
2018-07-15T21:21:37.443Z,60.69
2018-07-15T21:24:08.534Z,61.09
2018-07-15T21:26:38.567Z,60.88
2018-07-15T21:29:08.784Z,61.25
2018-07-15T21:31:38.417Z,61.20
2018-07-15T21:34:08.620Z,59.88
2018-07-15T21:36:38.711Z,58.95
2018-07-15T21:39:10.040Z,57.92
2018-07-15T21:41:40.137Z,57.25
2018-07-15T21:44:10.200Z,57.56
2018-07-15T21:46:40.271Z,58.11
2018-07-15T21:49:10.323Z,57.67
2018-07-15T21:51:40.420Z,57.83
2018-07-15T21:54:10.698Z,57.87
2018-07-15T21:56:40.757Z,56.75
2018-07-15T21:59:10.858Z,56.50
2018-07-15T22:01:42.760Z,55.99
2018-07-15T22:04:13.179Z,56.19
2018-07-15T22:06:59.812Z,55.49
2018-07-15T22:10:10.320Z,55.56
2018-07-15T22:12:40.392Z,55.69
2018-07-15T22:15:10.483Z,55.39
2018-07-15T22:17:40.597Z,54.90
2018-07-15T22:20:11.579Z,55.17
2018-07-15T22:22:41.640Z,55.26
2018-07-15T22:25:11.752Z,56.09
2018-07-15T22:27:41.354Z,56.43
2018-07-15T22:30:11.455Z,56.60
2018-07-15T22:32:41.505Z,56.75
2018-07-15T22:35:11.612Z,56.96
2018-07-15T22:37:41.673Z,58.54
2018-07-15T22:40:11.744Z,60.50
2018-07-15T22:42:41.820Z,60.63
2018-07-15T22:45:11.979Z,61.13
2018-07-15T22:47:42.007Z,61.94
2018-07-15T22:50:12.124Z,62.17
2018-07-15T22:52:42.251Z,61.90
2018-07-15T22:55:12.332Z,61.40
2018-07-15T22:57:42.481Z,62.32
2018-07-15T23:00:12.801Z,61.88
2018-07-15T23:02:42.857Z,61.80
2018-07-15T23:05:57.853Z,61.73
2018-07-15T23:08:29.140Z,62.19
2018-07-15T23:10:59.240Z,61.63
2018-07-15T23:13:29.342Z,60.80
2018-07-15T23:15:59.481Z,61.02
2018-07-15T23:18:29.539Z,60.93
2018-07-15T23:20:59.752Z,60.90
2018-07-15T23:23:29.811Z,61.28
2018-07-15T23:25:59.915Z,61.21
2018-07-15T23:28:30.009Z,61.83
2018-07-15T23:31:00.145Z,62.39
2018-07-15T23:33:30.163Z,61.92
2018-07-15T23:36:00.313Z,61.98
2018-07-15T23:38:30.353Z,61.72
2018-07-15T23:41:00.515Z,62.27
2018-07-15T23:43:30.598Z,64.03
2018-07-15T23:46:00.255Z,63.72
2018-07-15T23:48:30.352Z,64.26
2018-07-15T23:51:00.399Z,64.37
2018-07-15T23:53:30.530Z,66.10
2018-07-15T23:56:00.615Z,66.95
2018-07-15T23:58:30.680Z,67.42
